Time;durP1;ratioP1;P1;durP2;ratioP2;P2;SDS_P1;SDS_P2;PMS_P1;PMS_P2;Temp;Humidity;BMP_temperature;BMP_pressure;BME280_temperature;BME280_humidity;BME280_pressure;Samples;Min_cycle;Max_cycle;Signal;HPM_P1;HPM_P2
2022/11/23 00:01:19;;;;;;;3.90;1.93;;;;;;;6.31;86.08;98980.13;4994529;28;20227;-78
2022/11/23 00:03:47;;;;;;;3.80;2.43;;;;;;;6.29;85.86;98989.69;4994605;28;20221;-77
2022/11/23 00:06:14;;;;;;;1.93;1.67;;;;;;;6.21;85.89;98991.63;4994888;28;20222;-77
2022/11/23 00:08:40;;;;;;;2.93;2.20;;;;;;;6.20;85.72;98995.06;4994941;28;20210;-78
2022/11/23 00:11:07;;;;;;;3.53;1.77;;;;;;;6.17;85.96;99001.19;4994485;28;20232;-77
2022/11/23 00:13:35;;;;;;;4.50;1.97;;;;;;;6.13;86.26;98996.97;4995790;28;20214;-78
2022/11/23 00:16:04;;;;;;;2.30;2.10;;;;;;;6.14;86.09;98993.47;4994698;28;20211;-78
2022/11/23 00:18:31;;;;;;;2.00;1.80;;;;;;;6.09;86.66;98988.41;4994250;28;20635;-77
2022/11/23 00:20:57;;;;;;;4.93;1.70;;;;;;;6.09;86.00;98996.19;4994198;28;20709;-78
2022/11/23 00:23:23;;;;;;;6.00;2.33;;;;;;;6.03;86.25;99003.28;4994224;28;20219;-78
2022/11/23 00:25:50;;;;;;;2.80;1.57;;;;;;;6.01;85.92;99016.25;4993444;28;20927;-78
2022/11/23 00:28:16;;;;;;;3.37;2.00;;;;;;;5.91;86.56;99012.16;4998884;28;20207;-77
2022/11/23 00:30:49;;;;;;;2.70;1.97;;;;;;;5.93;86.67;99010.38;5017058;28;20230;-78
2022/11/23 00:33:15;;;;;;;2.53;1.70;;;;;;;5.87;86.63;99002.75;5018471;28;20573;-77
2022/11/23 00:35:41;;;;;;;3.57;2.10;;;;;;;5.88;86.89;98994.91;5017785;28;20699;-78
2022/11/23 00:38:08;;;;;;;2.13;1.50;;;;;;;5.88;86.80;98992.31;5017695;28;20217;-77
2022/11/23 00:40:34;;;;;;;3.03;1.80;;;;;;;5.87;86.24;98988.06;5017624;28;20227;-78
2022/11/23 00:43:01;;;;;;;1.67;1.50;;;;;;;5.82;87.02;98995.06;5017722;28;20580;-77
2022/11/23 00:45:27;;;;;;;3.33;1.67;;;;;;;5.82;86.23;98987.28;5017792;28;20214;-77
2022/11/23 00:47:55;;;;;;;3.33;1.70;;;;;;;5.75;86.49;98989.19;5017438;28;20215;-77
2022/11/23 00:50:21;;;;;;;3.30;1.63;;;;;;;5.73;87.11;98985.78;5016896;28;20733;-77
2022/11/23 00:52:48;;;;;;;4.30;2.10;;;;;;;5.50;87.00;98973.34;5017940;28;20206;-78
2022/11/23 00:55:14;;;;;;;3.23;1.87;;;;;;;5.54;87.79;98959.44;5017366;28;20218;-77
2022/11/23 00:57:41;;;;;;;2.57;1.63;;;;;;;5.59;87.38;98949.00;5018328;28;20210;-77
2022/11/23 01:00:08;;;;;;;2.43;1.53;;;;;;;5.56;87.25;98942.16;5017187;28;20230;-77
2022/11/23 01:02:35;;;;;;;2.70;1.80;;;;;;;5.52;87.37;98958.63;5017396;28;20203;-78
2022/11/23 01:05:03;;;;;;;5.23;1.80;;;;;;;5.48;87.56;98958.75;5017423;28;20202;-77
2022/11/23 01:07:30;;;;;;;2.27;1.30;;;;;;;5.45;87.02;98948.44;5017611;28;20677;-78
2022/11/23 01:09:56;;;;;;;2.47;1.50;;;;;;;5.34;87.07;98948.69;5017155;28;20281;-78
2022/11/23 01:12:23;;;;;;;1.77;1.40;;;;;;;5.33;88.09;98945.25;5017565;28;20898;-77
2022/11/23 01:14:49;;;;;;;2.10;1.40;;;;;;;5.33;87.75;98934.03;5017808;28;20218;-78
2022/11/23 01:17:16;;;;;;;1.73;1.50;;;;;;;5.29;87.64;98948.81;5017356;28;20232;-77
2022/11/23 01:19:42;;;;;;;1.93;1.30;;;;;;;5.24;87.49;98931.66;5017286;28;20215;-77
2022/11/23 01:22:10;;;;;;;1.70;1.53;;;;;;;5.28;87.87;98931.56;5017337;28;20202;-78
2022/11/23 01:24:36;;;;;;;3.93;1.40;;;;;;;5.29;87.98;98946.22;5017176;28;20214;-77
2022/11/23 01:27:03;;;;;;;2.13;1.93;;;;;;;5.26;87.89;98948.84;5016995;28;20206;-78
2022/11/23 01:29:29;;;;;;;2.07;1.60;;;;;;;5.28;88.34;98947.09;5016779;28;20213;-78
2022/11/23 01:31:56;;;;;;;6.13;1.77;;;;;;;5.29;89.10;98920.34;5016202;28;20618;-78
2022/11/23 01:34:22;;;;;;;2.80;1.67;;;;;;;5.35;88.60;98914.16;5016348;28;20207;-78
2022/11/23 01:36:49;;;;;;;1.90;1.30;;;;;;;5.31;88.57;98935.81;5014950;28;20214;-77
2022/11/23 01:39:16;;;;;;;1.73;1.53;;;;;;;5.26;88.09;98938.50;5016604;28;20211;-78
2022/11/23 01:41:44;;;;;;;5.73;2.70;;;;;;;5.27;88.09;98954.88;5016436;28;20223;-78
2022/11/23 01:44:23;;;;;;;1.47;1.30;;;;;;;5.23;87.52;98961.84;5016679;28;20225;-78
2022/11/23 01:46:49;;;;;;;1.60;1.27;;;;;;;5.18;87.35;98967.13;5016210;28;20214;-77
2022/11/23 01:49:16;;;;;;;1.70;1.23;;;;;;;5.18;87.47;98968.88;5016846;28;20222;-77
2022/11/23 01:51:46;;;;;;;1.97;1.17;;;;;;;5.10;87.78;98976.78;5016150;28;20235;-78
2022/11/23 01:54:17;;;;;;;1.97;1.50;;;;;;;5.07;87.73;98981.16;5016567;28;20218;-78
2022/11/23 01:56:52;;;;;;;1.37;1.27;;;;;;;5.08;87.90;98982.88;5016236;28;20206;-78
2022/11/23 01:59:19;;;;;;;1.50;1.20;;;;;;;5.08;87.25;98982.88;5016152;28;20210;-78
2022/11/23 02:01:46;;;;;;;1.73;1.20;;;;;;;5.07;87.47;98983.75;5015443;28;20729;-78
2022/11/23 02:04:17;;;;;;;1.43;1.20;;;;;;;4.96;87.68;98987.41;5016693;28;20207;-78
2022/11/23 02:06:47;;;;;;;2.33;1.50;;;;;;;4.98;87.99;98979.63;5016240;28;20214;-78
2022/11/23 02:09:14;;;;;;;1.80;1.40;;;;;;;4.95;88.12;98969.31;5016125;28;20206;-79
2022/11/23 02:11:40;;;;;;;2.00;1.20;;;;;;;4.86;88.36;98965.19;5015422;28;20241;-78
2022/11/23 02:14:09;;;;;;;1.33;1.20;;;;;;;4.89;88.09;98959.94;5015819;28;20214;-78
2022/11/23 02:16:37;;;;;;;3.00;1.70;;;;;;;4.84;88.72;98956.63;5015827;28;20210;-79
2022/11/23 02:19:06;;;;;;;1.90;1.33;;;;;;;4.83;89.48;98941.13;5015470;28;20211;-78
2022/11/23 02:21:33;;;;;;;2.83;1.57;;;;;;;4.84;89.54;98937.69;5014958;28;20234;-78
2022/11/23 02:24:05;;;;;;;1.70;1.33;;;;;;;4.87;89.66;98920.34;5015121;28;20228;-78
2022/11/23 02:26:35;;;;;;;2.23;1.40;;;;;;;4.85;90.31;98898.00;5016442;28;20225;-78
2022/11/23 02:29:06;;;;;;;1.23;1.10;;;;;;;4.88;90.58;98887.63;5015726;28;20202;-79
2022/11/23 02:31:33;;;;;;;1.90;1.30;;;;;;;4.89;90.26;98890.13;5014943;28;20234;-77
2022/11/23 02:33:59;;;;;;;1.80;1.33;;;;;;;4.86;90.63;98885.06;5015965;28;20207;-78
2022/11/23 02:36:39;;;;;;;2.60;1.80;;;;;;;4.93;90.36;98878.84;5016262;28;20211;-77
2022/11/23 02:39:10;;;;;;;2.73;1.50;;;;;;;4.95;91.36;98874.50;5015804;28;20222;-78
2022/11/23 02:41:41;;;;;;;2.07;1.17;;;;;;;5.00;91.65;98860.66;5015766;28;20257;-77
2022/11/23 02:44:14;;;;;;;2.00;1.50;;;;;;;5.07;92.08;98854.44;5015801;28;20209;-78
2022/11/23 02:46:41;;;;;;;2.50;1.30;;;;;;;5.09;91.61;98843.16;5016273;28;20221;-77
2022/11/23 02:49:07;;;;;;;4.40;1.53;;;;;;;5.04;93.65;98818.31;5015060;28;20206;-77
2022/11/23 02:51:34;;;;;;;1.83;1.50;;;;;;;5.11;92.79;98797.47;5014339;28;20238;-77
2022/11/23 02:54:00;;;;;;;2.50;1.57;;;;;;;5.15;93.44;98793.91;5015378;28;20576;-79
2022/11/23 02:56:27;;;;;;;2.63;1.30;;;;;;;5.21;93.42;98779.13;5015952;28;20214;-77
2022/11/23 02:58:55;;;;;;;2.77;1.70;;;;;;;5.30;93.82;98784.06;5015777;28;20238;-78
2022/11/23 03:01:21;;;;;;;3.27;1.57;;;;;;;5.29;93.51;98778.06;5015140;28;20240;-79
2022/11/23 03:03:47;;;;;;;2.40;1.23;;;;;;;5.35;94.26;98767.56;5015802;28;20210;-78
2022/11/23 03:06:14;;;;;;;4.13;2.93;;;;;;;5.41;93.92;98774.31;5015868;28;20556;-78
2022/11/23 03:08:40;;;;;;;4.10;1.50;;;;;;;5.31;94.39;98760.75;5015702;28;20210;-78
2022/11/23 03:11:07;;;;;;;2.57;1.70;;;;;;;5.36;95.54;98743.38;5015027;28;20234;-78
2022/11/23 03:13:33;;;;;;;2.13;1.70;;;;;;;5.52;95.75;98728.31;5015297;28;20213;-77
2022/11/23 03:16:01;;;;;;;1.80;1.50;;;;;;;5.56;95.60;98739.44;5015365;28;20221;-77
2022/11/23 03:18:27;;;;;;;3.87;2.20;;;;;;;5.66;95.28;98737.44;5014651;28;20213;-78
2022/11/23 03:20:54;;;;;;;3.83;1.80;;;;;;;5.72;94.84;98751.06;5015332;28;20237;-77
2022/11/23 03:23:20;;;;;;;4.20;1.77;;;;;;;5.80;94.52;98756.03;5015444;28;20263;-79
2022/11/23 03:25:55;;;;;;;3.27;2.03;;;;;;;5.86;94.11;98762.81;5014922;28;20210;-77
2022/11/23 03:28:21;;;;;;;3.77;2.07;;;;;;;5.99;94.41;98769.38;5015281;28;20745;-77
2022/11/23 03:30:47;;;;;;;3.33;1.60;;;;;;;6.08;93.99;98776.88;5015107;28;20238;-78
2022/11/23 03:33:15;;;;;;;2.07;1.53;;;;;;;6.11;93.54;98782.00;5015675;28;20318;-77
2022/11/23 03:35:42;;;;;;;3.10;2.13;;;;;;;6.15;93.33;98793.13;5015142;28;20218;-78
2022/11/23 03:38:09;;;;;;;4.67;2.07;;;;;;;6.22;93.04;98794.63;5015612;28;20210;-78
2022/11/23 03:40:35;;;;;;;2.97;1.63;;;;;;;6.26;92.71;98809.22;5014672;28;20242;-78
2022/11/23 03:43:02;;;;;;;4.50;1.60;;;;;;;6.27;92.31;98815.25;5014952;28;20207;-78
2022/11/23 03:45:28;;;;;;;3.20;1.80;;;;;;;6.29;92.58;98829.03;5015464;28;20238;-78
2022/11/23 03:47:54;;;;;;;3.43;1.90;;;;;;;6.22;92.47;98843.03;5015534;28;20214;-78
2022/11/23 03:50:22;;;;;;;3.27;1.83;;;;;;;6.29;92.40;98839.38;5013969;28;20754;-78
2022/11/23 03:52:49;;;;;;;5.17;2.03;;;;;;;6.28;91.83;98846.31;5015313;28;20226;-78
2022/11/23 03:55:16;;;;;;;2.10;1.87;;;;;;;6.28;92.38;98854.09;5014581;28;20214;-79
2022/11/23 03:57:42;;;;;;;5.97;1.87;;;;;;;6.34;91.51;98853.94;5015168;28;20209;-78
2022/11/23 04:00:10;;;;;;;4.00;1.60;;;;;;;6.31;91.11;98864.34;5014463;28;20786;-77
2022/11/23 04:02:36;;;;;;;2.83;1.80;;;;;;;6.31;91.40;98882.50;5014877;28;20215;-78
2022/11/23 04:05:03;;;;;;;3.83;1.80;;;;;;;6.24;91.07;98880.09;5014854;28;20207;-77
2022/11/23 04:07:30;;;;;;;3.13;2.00;;;;;;;6.24;91.38;98873.19;5015086;28;20211;-77
2022/11/23 04:09:57;;;;;;;2.90;1.90;;;;;;;6.27;92.21;98873.09;5014315;28;20226;-77
2022/11/23 04:12:24;;;;;;;2.53;1.70;;;;;;;6.30;91.84;98877.34;5014415;28;20226;-77
2022/11/23 04:14:51;;;;;;;3.77;1.93;;;;;;;6.28;91.33;98881.72;5014574;28;20206;-78
2022/11/23 04:17:18;;;;;;;2.77;1.60;;;;;;;6.29;90.87;98881.69;5014633;28;20228;-78
2022/11/23 04:19:44;;;;;;;1.60;1.50;;;;;;;6.27;91.74;98878.28;5014382;28;20211;-77
2022/11/23 04:22:11;;;;;;;3.73;1.87;;;;;;;6.26;91.54;98873.97;5014329;28;20210;-77
2022/11/23 04:24:38;;;;;;;3.37;1.77;;;;;;;6.24;90.96;98870.59;5014217;28;20226;-78
2022/11/23 04:27:05;;;;;;;3.97;1.80;;;;;;;6.30;91.40;98883.41;5014635;28;20206;-78
2022/11/23 04:29:31;;;;;;;3.17;1.80;;;;;;;6.29;90.84;98880.84;5014486;28;20207;-78
2022/11/23 04:31:58;;;;;;;1.97;1.60;;;;;;;6.24;91.40;98880.09;5013868;28;20245;-78
2022/11/23 04:34:24;;;;;;;2.33;1.60;;;;;;;6.24;91.62;98883.53;5014588;28;20203;-78
2022/11/23 04:36:51;;;;;;;2.60;2.00;;;;;;;6.23;91.20;98881.84;5014238;28;20210;-78
2022/11/23 04:39:17;;;;;;;2.90;2.07;;;;;;;6.22;91.42;98879.31;5014602;28;20214;-78
2022/11/23 04:41:45;;;;;;;5.47;2.27;;;;;;;6.21;91.16;98878.47;5013517;28;20706;-78
2022/11/23 04:44:11;;;;;;;2.43;1.47;;;;;;;6.19;91.58;98887.16;5014211;28;20209;-78
2022/11/23 04:46:37;;;;;;;4.83;1.90;;;;;;;6.19;92.07;98880.25;5013639;28;20215;-78
2022/11/23 04:49:04;;;;;;;5.00;2.13;;;;;;;6.19;91.33;98872.47;5014537;28;20199;-77
2022/11/23 04:51:30;;;;;;;4.77;2.07;;;;;;;6.21;91.41;98868.09;5013616;28;20234;-79
2022/11/23 04:53:57;;;;;;;4.10;1.60;;;;;;;6.22;91.75;98866.34;5014288;28;20207;-78
2022/11/23 04:56:23;;;;;;;4.97;1.90;;;;;;;6.19;91.70;98872.47;5014105;28;20593;-78
2022/11/23 04:58:51;;;;;;;3.13;1.80;;;;;;;6.20;91.72;98875.91;5014569;28;20214;-77
2022/11/23 05:01:17;;;;;;;5.80;1.90;;;;;;;6.24;91.02;98877.50;5013834;28;20230;-78
2022/11/23 05:03:44;;;;;;;4.77;1.80;;;;;;;6.21;90.72;98881.06;5014097;28;20583;-78
2022/11/23 05:06:10;;;;;;;4.00;2.03;;;;;;;6.20;91.02;98876.75;5013791;28;20211;-77
2022/11/23 05:08:37;;;;;;;4.07;1.80;;;;;;;6.19;90.97;98890.59;5014146;28;20215;-78
2022/11/23 05:11:03;;;;;;;4.60;1.70;;;;;;;6.20;91.01;98887.09;5013627;28;20242;-78
2022/11/23 05:13:30;;;;;;;2.27;1.60;;;;;;;6.21;91.18;98883.63;5015662;28;20238;-77
2022/11/23 05:15:57;;;;;;;4.10;1.70;;;;;;;6.21;92.09;98885.38;5017347;28;20686;-79
2022/11/23 05:18:24;;;;;;;2.90;1.83;;;;;;;6.13;91.20;98893.34;5017910;28;20205;-78
2022/11/23 05:20:50;;;;;;;2.70;1.40;;;;;;;6.20;91.90;98876.75;5016428;28;20601;-78
2022/11/23 05:23:17;;;;;;;3.23;1.50;;;;;;;6.14;91.60;98885.56;5017744;28;20214;-78
2022/11/23 05:25:43;;;;;;;7.60;1.87;;;;;;;6.17;91.80;98882.03;5016432;28;20211;-78
2022/11/23 05:28:15;;;;;;;2.43;1.70;;;;;;;6.18;91.37;98880.28;5017948;28;20261;-77
2022/11/23 05:30:41;;;;;;;3.77;1.43;;;;;;;6.22;91.59;98885.31;5017121;28;20237;-78
2022/11/23 05:33:09;;;;;;;3.17;1.60;;;;;;;6.28;91.32;98887.78;5017378;28;20249;-78
2022/11/23 05:35:36;;;;;;;2.53;1.43;;;;;;;6.30;90.75;98896.34;5017008;28;20229;-79
2022/11/23 05:38:02;;;;;;;4.03;1.80;;;;;;;6.33;90.82;98910.97;5017451;28;20207;-77
2022/11/23 05:40:29;;;;;;;2.97;1.50;;;;;;;6.28;90.63;98912.81;5016345;28;20234;-78
2022/11/23 05:42:55;;;;;;;3.60;1.53;;;;;;;6.37;91.21;98912.59;5016289;28;20208;-77
2022/11/23 05:45:22;;;;;;;2.90;1.70;;;;;;;6.43;90.67;98915.00;5017263;28;20203;-78
2022/11/23 05:47:52;;;;;;;4.63;1.50;;;;;;;6.43;91.14;98921.94;5016892;28;20217;-78
2022/11/23 05:52:50;;;;;;;5.87;1.50;;;;;;;6.52;90.19;98934.63;5035933;22;20621;-79
2022/11/23 05:55:16;;;;;;;2.47;1.80;;;;;;;6.57;90.24;98937.97;5015064;28;20568;-80
2022/11/23 05:57:43;;;;;;;3.53;1.60;;;;;;;6.60;89.72;98943.09;5015256;28;20211;-79
2022/11/23 06:00:10;;;;;;;3.80;1.63;;;;;;;6.63;89.94;98949.94;5015035;28;20206;-80
2022/11/23 06:02:37;;;;;;;4.27;2.10;;;;;;;6.58;90.00;98950.06;5014776;28;20272;-79
2022/11/23 06:05:04;;;;;;;1.67;1.37;;;;;;;6.65;90.58;98955.91;5014678;28;20204;-79
2022/11/23 06:07:31;;;;;;;2.83;1.47;;;;;;;6.66;89.58;98955.88;5014380;28;20220;-80
2022/11/23 06:10:00;;;;;;;5.70;1.83;;;;;;;6.67;89.74;98967.94;5014618;28;20229;-78
2022/11/23 06:12:27;;;;;;;3.77;1.47;;;;;;;6.64;89.40;98972.34;5014728;28;20230;-80
2022/11/23 06:14:54;;;;;;;1.77;1.40;;;;;;;6.64;90.12;98965.44;5014716;28;20681;-81
2022/11/23 06:17:20;;;;;;;2.07;1.40;;;;;;;6.63;89.64;98958.53;5014311;28;20214;-82
2022/11/23 06:19:47;;;;;;;4.23;1.60;;;;;;;6.66;89.92;98961.06;5016083;28;20218;-82
2022/11/23 06:22:14;;;;;;;4.77;1.50;;;;;;;6.69;89.36;98970.50;5015413;28;20226;-82
2022/11/23 06:24:40;;;;;;;3.23;1.43;;;;;;;6.72;89.76;98968.69;5016786;28;20649;-85
2022/11/23 06:27:08;;;;;;;3.27;1.47;;;;;;;6.74;89.45;98972.09;5017661;28;20214;-84
2022/11/23 06:29:35;;;;;;;4.10;2.27;;;;;;;6.73;89.23;98982.50;5014560;28;20206;-83
2022/11/23 06:32:01;;;;;;;4.07;1.60;;;;;;;6.69;89.04;98979.13;5016147;28;20277;-85
2022/11/23 06:34:28;;;;;;;2.67;1.40;;;;;;;6.74;89.82;98982.44;5014881;28;20207;-84
2022/11/23 06:36:54;;;;;;;4.57;1.73;;;;;;;6.77;89.30;98989.28;5016269;28;20219;-84
2022/11/23 06:39:20;;;;;;;3.93;1.50;;;;;;;6.84;89.14;99002.94;5016327;28;20202;-83
2022/11/23 06:41:47;;;;;;;2.70;1.30;;;;;;;6.87;89.36;99008.91;5015746;28;20231;-83
2022/11/23 06:44:15;;;;;;;7.27;1.87;;;;;;;6.95;88.39;99026.84;5015810;28;20210;-84
2022/11/23 06:46:41;;;;;;;2.50;1.43;;;;;;;6.95;88.29;99043.25;5015558;28;20214;-83
2022/11/23 06:49:08;;;;;;;3.27;1.53;;;;;;;6.96;88.76;99033.75;5015708;28;20222;-83
2022/11/23 06:51:34;;;;;;;4.73;1.53;;;;;;;6.96;88.20;99044.97;5014635;28;20246;-81
2022/11/23 06:54:01;;;;;;;3.03;1.70;;;;;;;6.90;88.11;99057.25;5016828;28;20239;-83
2022/11/23 06:56:27;;;;;;;4.57;1.57;;;;;;;6.96;88.41;99050.16;5016188;28;20217;-87
2022/11/23 06:58:53;;;;;;;2.77;1.63;;;;;;;6.96;88.42;99057.09;5014966;28;20214;-84
2022/11/23 07:01:21;;;;;;;2.23;1.50;;;;;;;6.93;87.72;99062.34;5014996;28;20242;-85
2022/11/23 07:03:47;;;;;;;2.13;1.33;;;;;;;6.95;88.45;99065.75;5015931;28;20643;-86
2022/11/23 07:06:14;;;;;;;2.90;1.53;;;;;;;6.92;88.33;99063.25;5015692;28;20210;-85
2022/11/23 07:08:42;;;;;;;3.67;1.50;;;;;;;6.93;88.33;99065.78;5015686;28;20199;-84
2022/11/23 07:11:10;;;;;;;3.03;1.50;;;;;;;6.96;88.28;99062.28;5015317;28;20721;-86
2022/11/23 07:13:37;;;;;;;2.97;1.50;;;;;;;6.87;88.58;99062.53;5015873;28;20233;-85
2022/11/23 07:16:03;;;;;;;4.33;1.73;;;;;;;6.93;88.40;99060.59;5016788;28;20242;-85
2022/11/23 07:18:31;;;;;;;2.83;1.80;;;;;;;6.86;89.07;99059.09;5018266;28;20213;-86
2022/11/23 07:20:58;;;;;;;3.93;1.30;;;;;;;6.87;88.76;99065.94;5016535;28;20252;-86
2022/11/23 07:23:29;;;;;;;3.20;1.47;;;;;;;6.91;88.16;99069.31;5017570;28;20206;-87
2022/11/23 07:25:55;;;;;;;4.03;1.87;;;;;;;6.97;88.05;99079.53;5015201;28;20207;-86
2022/11/23 07:28:22;;;;;;;3.50;1.77;;;;;;;7.07;88.26;99080.16;5014739;28;20619;-87
2022/11/23 07:30:51;;;;;;;1.67;1.33;;;;;;;7.03;87.90;99091.50;5015098;28;20230;-86
2022/11/23 07:33:18;;;;;;;3.13;2.33;;;;;;;7.04;87.54;99099.25;5015531;28;20251;-84
2022/11/23 07:35:47;;;;;;;3.90;1.57;;;;;;;7.12;87.04;99099.91;5014989;28;20678;-85
2022/11/23 07:38:13;;;;;;;3.17;1.93;;;;;;;7.10;87.90;99100.84;5014785;28;20206;-84
2022/11/23 07:40:40;;;;;;;4.23;1.90;;;;;;;7.11;86.54;99108.56;5015233;28;20211;-83
2022/11/23 07:43:07;;;;;;;4.03;1.87;;;;;;;7.17;86.78;99112.75;5015168;28;20735;-83
2022/11/23 07:45:35;;;;;;;2.63;1.40;;;;;;;7.22;87.17;99113.47;5014214;28;20214;-81
2022/11/23 07:48:04;;;;;;;2.83;1.30;;;;;;;7.16;86.45;99127.47;5012691;28;20199;-82
2022/11/23 07:50:30;;;;;;;3.43;1.50;;;;;;;7.16;87.28;99134.41;5012303;28;20194;-81
2022/11/23 07:52:58;;;;;;;2.57;1.40;;;;;;;7.26;86.63;99116.84;5012690;28;20227;-82
2022/11/23 07:55:25;;;;;;;2.40;1.57;;;;;;;7.18;87.25;99118.81;5012537;28;20206;-81
2022/11/23 07:57:53;;;;;;;2.93;1.60;;;;;;;7.12;86.89;99125.00;5013676;28;20203;-82
2022/11/23 08:00:20;;;;;;;3.93;1.90;;;;;;;7.23;86.52;99125.56;5009862;28;21094;-81
2022/11/23 08:02:46;;;;;;;4.60;1.60;;;;;;;7.30;86.12;99137.47;5012425;28;20284;-81
2022/11/23 08:05:13;;;;;;;7.77;1.67;;;;;;;7.38;86.25;99139.88;5012120;28;20198;-83
2022/11/23 08:07:39;;;;;;;3.53;1.83;;;;;;;7.39;86.19;99156.28;5011421;28;20202;-82
2022/11/23 08:10:08;;;;;;;2.83;1.83;;;;;;;7.43;85.70;99156.16;5011756;28;20232;-83
2022/11/23 08:12:35;;;;;;;2.77;1.70;;;;;;;7.51;85.62;99162.03;5012454;28;20245;-82
2022/11/23 08:15:01;;;;;;;2.33;1.50;;;;;;;7.55;85.83;99168.84;5012704;28;20207;-84
2022/11/23 08:17:27;;;;;;;2.80;1.60;;;;;;;7.61;86.04;99173.03;5012834;28;20225;-81
2022/11/23 08:19:54;;;;;;;1.93;1.37;;;;;;;7.64;86.11;99170.31;5013099;28;20700;-85
2022/11/23 08:22:21;;;;;;;5.07;1.50;;;;;;;7.68;85.85;99179.72;5012449;28;20577;-85
2022/11/23 08:24:48;;;;;;;4.27;1.43;;;;;;;7.70;85.54;99177.09;5013043;28;20203;-82
2022/11/23 08:27:15;;;;;;;5.50;1.83;;;;;;;7.75;85.62;99183.88;5013247;28;20245;-83
2022/11/23 08:29:42;;;;;;;4.23;1.60;;;;;;;7.65;84.65;99195.41;5012769;28;20203;-87
2022/11/23 08:32:08;;;;;;;3.07;1.43;;;;;;;7.62;84.98;99211.06;5012404;28;20218;-85
2022/11/23 08:34:35;;;;;;;4.27;1.43;;;;;;;7.75;84.80;99199.47;5013620;28;20218;-85
2022/11/23 08:37:03;;;;;;;2.40;1.40;;;;;;;7.80;85.04;99201.06;5014699;28;20210;-85
2022/11/23 08:39:30;;;;;;;2.87;1.40;;;;;;;7.84;85.35;99184.50;5013403;28;20198;-83
2022/11/23 08:41:56;;;;;;;3.90;1.53;;;;;;;7.89;84.94;99201.69;5014356;28;20219;-82
2022/11/23 08:44:24;;;;;;;3.10;1.40;;;;;;;7.92;85.16;99203.31;5016736;28;20206;-81
2022/11/23 08:46:50;;;;;;;4.13;1.23;;;;;;;7.94;85.26;99210.19;5018802;28;20199;-81
2022/11/23 08:49:17;;;;;;;3.00;1.10;;;;;;;7.98;84.83;99215.31;5020738;28;20206;-82
2022/11/23 08:51:43;;;;;;;3.27;1.30;;;;;;;8.04;84.74;99222.91;5016937;28;20235;-83
2022/11/23 08:54:10;;;;;;;2.80;1.30;;;;;;;8.05;84.24;99220.28;5018291;28;20229;-83
2022/11/23 08:56:36;;;;;;;1.50;1.17;;;;;;;8.04;83.83;99221.16;5018957;28;20513;-83
2022/11/23 08:59:03;;;;;;;2.57;1.50;;;;;;;8.07;83.87;99244.47;5020183;28;20202;-84
2022/11/23 09:01:31;;;;;;;3.30;1.23;;;;;;;8.05;84.03;99241.06;5017393;28;20310;-82
2022/11/23 09:04:03;;;;;;;2.07;1.27;;;;;;;7.92;82.87;99263.94;5019447;28;20210;-82
2022/11/23 09:06:32;;;;;;;3.13;1.27;;;;;;;8.08;83.63;99258.31;5017518;28;20199;-81
2022/11/23 09:08:59;;;;;;;4.73;1.77;;;;;;;8.13;83.72;99264.25;5017361;28;20297;-82
2022/11/23 09:11:37;;;;;;;4.07;1.40;;;;;;;8.14;82.41;99291.94;5014732;28;20225;-82
2022/11/23 09:14:20;;;;;;;3.80;1.40;;;;;;;8.32;84.77;99222.97;5017959;28;20249;-86
2022/11/23 09:17:07;;;;;;;3.43;1.40;;;;;;;8.46;84.85;99220.00;5017704;28;20707;-80
2022/11/23 09:19:39;;;;;;;4.77;1.60;;;;;;;8.50;82.79;99247.59;5015174;28;20210;-81
2022/11/23 09:22:09;;;;;;;2.07;1.20;;;;;;;8.68;84.09;99243.59;5017079;28;20214;-83
2022/11/23 09:24:58;;;;;;;2.73;1.10;;;;;;;8.58;81.42;99296.81;5017771;28;20305;-84
2022/11/23 09:27:24;;;;;;;1.77;1.00;;;;;;;8.72;82.23;99337.13;5018582;28;20191;-84
2022/11/23 09:30:15;;;;;;;2.23;1.37;;;;;;;8.68;81.17;99329.44;5018098;28;20206;-83
2022/11/23 09:33:01;;;;;;;2.37;1.27;;;;;;;8.67;81.39;99338.16;5002162;28;20222;-86
2022/11/23 09:36:03;;;;;;;3.27;1.23;;;;;;;8.67;81.52;99343.38;5018375;28;20282;-86
2022/11/23 09:38:30;;;;;;;3.33;1.23;;;;;;;8.81;82.49;99322.16;5013167;28;20701;-84
2022/11/23 09:41:07;;;;;;;4.07;1.20;;;;;;;8.83;81.97;99334.22;5019162;28;20226;-85
2022/11/23 09:43:47;;;;;;;4.43;1.50;;;;;;;8.89;82.05;99312.38;5015776;28;20214;-84
2022/11/23 09:46:22;;;;;;;2.67;1.60;;;;;;;8.97;81.21;99353.78;5012607;28;20203;-84
2022/11/23 09:49:10;;;;;;;5.47;1.50;;;;;;;8.99;82.01;99333.75;5012375;28;20226;-81
2022/11/23 09:51:39;;;;;;;2.90;1.30;;;;;;;9.04;81.76;99342.25;5018558;28;20241;-83
2022/11/23 09:54:16;;;;;;;5.70;2.47;;;;;;;9.10;81.03;99348.16;5015959;28;20202;-84
2022/11/23 09:56:45;;;;;;;2.17;1.20;;;;;;;9.02;80.59;99375.28;5019616;28;20202;-83
2022/11/23 09:59:17;;;;;;;2.33;1.40;;;;;;;9.05;80.18;99385.63;5020500;28;20209;-83
2022/11/23 10:01:44;;;;;;;2.07;1.40;;;;;;;9.05;79.97;99393.44;5019768;28;20711;-85
2022/11/23 10:04:17;;;;;;;2.20;1.57;;;;;;;9.05;79.81;99409.91;5017805;28;20222;-84
2022/11/23 10:06:51;;;;;;;3.57;1.40;;;;;;;9.11;80.07;99411.47;5016101;28;20202;-84
2022/11/23 10:09:36;;;;;;;2.07;1.43;;;;;;;8.99;79.20;99420.50;5018834;28;20202;-85
2022/11/23 10:12:17;;;;;;;1.77;1.40;;;;;;;9.09;79.52;99423.69;5019299;28;20223;-83
2022/11/23 10:15:11;;;;;;;2.20;1.30;;;;;;;9.04;79.16;99429.03;5016984;28;20199;-85
2022/11/23 10:18:18;;;;;;;4.80;1.40;;;;;;;9.11;80.10;99427.09;5015926;28;20199;-85
2022/11/23 10:21:00;;;;;;;2.03;1.70;;;;;;;9.09;79.86;99423.69;5018040;28;20585;-82
2022/11/23 10:23:42;;;;;;;3.93;1.77;;;;;;;9.11;79.17;99425.34;5013718;28;20222;-81
2022/11/23 10:26:13;;;;;;;3.97;1.63;;;;;;;9.17;79.45;99428.66;5013371;28;20214;-83
2022/11/23 10:28:40;;;;;;;2.23;1.50;;;;;;;9.11;80.38;99417.53;5016080;28;20210;-84
2022/11/23 10:31:13;;;;;;;1.73;1.20;;;;;;;9.04;80.21;99403.00;5012856;28;20219;-86
2022/11/23 10:33:49;;;;;;;3.00;1.70;;;;;;;9.10;80.31;99400.22;5016511;28;20670;-84
2022/11/23 10:36:18;;;;;;;2.60;1.40;;;;;;;9.18;79.61;99402.59;5014915;28;20203;-86
2022/11/23 10:38:50;;;;;;;3.55;1.50;;;;;;;9.24;79.93;99414.59;4319327;28;10000725;-83
2022/11/23 10:41:38;;;;;;;4.70;1.50;;;;;;;9.15;78.57;99415.69;5011803;28;20254;-86
2022/11/23 10:44:12;;;;;;;3.10;1.40;;;;;;;9.20;78.72;99446.81;5011973;28;20233;-85
2022/11/23 10:46:40;;;;;;;3.70;1.40;;;;;;;9.26;79.14;99436.22;5012383;28;20213;-86
2022/11/23 10:49:35;;;;;;;2.73;1.20;;;;;;;9.34;79.46;99440.28;5009547;28;20209;-86
2022/11/23 10:55:14;;;;;;;4.40;1.50;;;;;;;9.31;77.83;99471.63;5008883;28;20290;-85
2022/11/23 10:57:43;;;;;;;3.87;1.57;;;;;;;9.46;78.07;99479.91;5010995;28;20435;-85
2022/11/23 11:00:17;;;;;;;3.47;1.30;;;;;;;9.44;77.45;99485.16;5010214;28;20203;-84
2022/11/23 11:03:02;;;;;;;3.40;1.47;;;;;;;9.48;77.89;99491.97;5010479;28;20223;-86
2022/11/23 11:08:21;;;;;;;2.53;1.17;;;;;;;9.56;77.50;99498.72;5006340;28;20268;-87
2022/11/23 11:10:49;;;;;;;3.03;1.40;;;;;;;9.62;77.82;99494.16;5008123;28;20223;-85
2022/11/23 11:13:24;;;;;;;1.50;1.07;;;;;;;9.60;77.51;99497.72;5009133;28;20628;-86
2022/11/23 11:15:56;;;;;;;5.03;1.10;;;;;;;9.49;76.26;99503.22;5007066;28;20724;-86
2022/11/23 11:18:27;;;;;;;2.50;1.30;;;;;;;9.52;77.22;99524.00;5009145;28;20214;-87
2022/11/23 11:20:58;;;;;;;1.90;1.30;;;;;;;9.42;75.92;99531.22;5007654;28;20233;-84
2022/11/23 11:23:41;;;;;;;2.60;1.67;;;;;;;9.48;76.13;99546.69;5010276;28;20209;-84
2022/11/23 11:26:50;;;;;;;1.97;1.20;;;;;;;9.52;76.67;99524.84;5007867;28;20195;-86
2022/11/23 11:29:48;;;;;;;;;;;;;;;;;;;;;
2022/11/23 11:32:30;;;;;;;3.70;1.40;;;;;;;9.72;76.79;99500.78;5007881;28;20215;-81
2022/11/23 11:35:19;;;;;;;1.70;1.40;;;;;;;9.71;76.10;99508.66;5006808;28;20253;-84
2022/11/23 11:37:55;;;;;;;4.43;1.50;;;;;;;9.74;77.37;99491.19;5010108;28;20243;-83
2022/11/23 11:40:28;;;;;;;3.70;1.30;;;;;;;9.83;77.42;99479.63;5009313;28;20194;-83
2022/11/23 11:42:59;;;;;;;6.97;1.30;;;;;;;9.88;77.60;99477.72;5008991;28;20206;-83
2022/11/23 11:45:29;;;;;;;2.27;1.20;;;;;;;9.83;77.41;99477.03;5006210;28;20219;-84
2022/11/23 11:48:24;;;;;;;2.97;1.40;;;;;;;9.71;77.04;99475.66;5009567;28;20210;-83
2022/11/23 11:50:53;;;;;;;2.57;1.40;;;;;;;9.71;77.09;99490.41;4996077;28;20226;-86
2022/11/23 11:56:40;;;;;;;2.97;1.67;;;;;;;9.87;77.21;99476.03;4973415;28;20215;-84
2022/11/23 11:59:22;;;;;;;4.87;1.90;;;;;;;10.00;77.31;99473.88;5008056;28;20205;-85
2022/11/23 12:01:57;;;;;;;2.97;1.53;;;;;;;9.96;76.63;99500.94;5009185;28;20712;-82
2022/11/23 12:04:27;;;;;;;1.90;1.37;;;;;;;10.04;77.27;99478.06;5008748;28;20229;-83
2022/11/23 12:07:00;;;;;;;4.33;1.63;;;;;;;10.09;76.64;99470.13;5008507;28;20214;-83